createdAt,value
2018-09-18T00:02:16.640Z,2.30
2018-09-18T00:04:44.194Z,3.43
2018-09-18T00:07:12.105Z,3.07
2018-09-18T00:09:39.698Z,2.43
2018-09-18T00:12:07.200Z,2.87
2018-09-18T00:14:34.720Z,3.20
2018-09-18T00:17:02.265Z,2.33
2018-09-18T00:19:30.030Z,2.77
2018-09-18T00:21:57.532Z,2.60
2018-09-18T00:24:25.082Z,2.70
2018-09-18T00:26:52.597Z,2.73
2018-09-18T00:29:20.242Z,2.50
2018-09-18T00:31:48.091Z,3.17
2018-09-18T00:34:15.644Z,2.73
2018-09-18T00:36:43.139Z,2.70
2018-09-18T00:39:10.985Z,3.00
2018-09-18T00:41:38.568Z,2.70
2018-09-18T00:44:06.161Z,3.27
2018-09-18T00:46:36.125Z,3.00
2018-09-18T00:49:03.605Z,2.90
2018-09-18T00:51:31.125Z,3.10
2018-09-18T00:53:58.610Z,2.90
2018-09-18T00:56:26.207Z,2.60
2018-09-18T00:58:53.694Z,2.57
2018-09-18T01:01:21.238Z,2.67
2018-09-18T01:03:48.731Z,2.70
2018-09-18T01:06:16.298Z,2.93
2018-09-18T01:08:43.800Z,2.53
2018-09-18T01:11:11.323Z,2.43
2018-09-18T01:13:38.868Z,2.87
2018-09-18T01:16:06.450Z,2.83
2018-09-18T01:18:38.633Z,3.83
2018-09-18T01:21:10.112Z,3.23
2018-09-18T01:23:37.808Z,3.10
2018-09-18T01:26:05.352Z,2.97
2018-09-18T01:28:33.171Z,2.93
2018-09-18T01:31:01.046Z,3.53
2018-09-18T01:33:28.639Z,3.77
2018-09-18T01:35:56.183Z,3.37
2018-09-18T01:38:24.158Z,3.47
2018-09-18T01:40:51.861Z,3.10
2018-09-18T01:43:19.459Z,3.00
2018-09-18T01:45:47.803Z,3.60
2018-09-18T01:48:15.320Z,3.13
2018-09-18T01:50:42.873Z,3.00
2018-09-18T01:53:10.402Z,3.60
2018-09-18T01:55:37.964Z,3.33
2018-09-18T01:58:05.529Z,2.93
2018-09-18T02:00:33.075Z,2.87
2018-09-18T02:03:01.079Z,3.30
2018-09-18T02:05:28.621Z,2.80
2018-09-18T02:07:56.175Z,4.50
2018-09-18T02:10:23.746Z,3.73
2018-09-18T02:12:51.299Z,3.60
2018-09-18T02:15:18.880Z,3.57
2018-09-18T02:17:46.695Z,3.00
2018-09-18T02:20:14.255Z,2.73
2018-09-18T02:22:41.798Z,3.23
2018-09-18T02:25:09.320Z,5.73
2018-09-18T02:27:36.846Z,4.20
2018-09-18T02:30:04.658Z,3.00
2018-09-18T02:32:32.193Z,4.90
2018-09-18T02:34:59.884Z,2.90
2018-09-18T02:37:27.439Z,4.87
2018-09-18T02:39:54.981Z,3.67
2018-09-18T02:42:22.606Z,3.67
2018-09-18T02:44:50.583Z,3.57
2018-09-18T02:47:18.159Z,4.03
2018-09-18T02:49:46.279Z,3.53
2018-09-18T02:52:13.824Z,3.83
2018-09-18T02:54:41.623Z,4.57
2018-09-18T02:57:09.195Z,3.30
2018-09-18T02:59:36.906Z,3.17
2018-09-18T03:02:04.561Z,3.50
2018-09-18T03:04:32.139Z,2.60
2018-09-18T03:07:00.066Z,2.80
2018-09-18T03:09:27.595Z,5.67
2018-09-18T03:11:55.147Z,4.47
2018-09-18T03:14:22.904Z,5.33
2018-09-18T03:16:50.431Z,4.53
2018-09-18T03:19:18.065Z,3.97
2018-09-18T03:21:46.067Z,3.80
2018-09-18T03:24:13.691Z,4.73
2018-09-18T03:26:41.276Z,4.87
2018-09-18T03:29:08.836Z,5.70
2018-09-18T03:31:36.406Z,4.20
2018-09-18T03:34:03.965Z,6.50
2018-09-18T03:36:31.535Z,8.90
2018-09-18T03:38:59.104Z,6.37
2018-09-18T03:41:26.671Z,4.97
2018-09-18T03:43:54.209Z,4.73
2018-09-18T03:46:21.771Z,4.43
2018-09-18T03:48:49.515Z,5.30
2018-09-18T03:51:17.036Z,6.70
2018-09-18T03:53:45.179Z,8.57
2018-09-18T03:56:12.730Z,8.43
2018-09-18T03:58:51.141Z,7.43
2018-09-18T04:01:18.671Z,9.17
2018-09-18T04:03:47.063Z,7.93
2018-09-18T04:06:14.632Z,8.63
2018-09-18T04:08:42.159Z,6.63
2018-09-18T04:11:09.824Z,5.20
2018-09-18T04:13:37.364Z,5.27
2018-09-18T04:16:05.041Z,5.30
2018-09-18T04:18:32.681Z,4.17
2018-09-18T04:21:00.650Z,6.10
2018-09-18T04:23:28.215Z,9.13
2018-09-18T04:25:59.482Z,5.83
2018-09-18T04:28:27.042Z,5.50
2018-09-18T04:30:54.566Z,4.73
2018-09-18T04:33:22.143Z,4.70
2018-09-18T04:35:49.677Z,3.87
2018-09-18T04:38:17.257Z,4.30
2018-09-18T04:40:45.262Z,4.90
2018-09-18T04:43:12.816Z,4.50
2018-09-18T04:45:40.559Z,4.10
2018-09-18T04:48:08.112Z,3.67
2018-09-18T04:50:35.835Z,3.90
2018-09-18T04:53:03.389Z,4.03
2018-09-18T04:55:31.031Z,3.80
2018-09-18T04:57:58.590Z,3.83
2018-09-18T05:00:26.662Z,3.67
2018-09-18T05:02:54.172Z,3.60
2018-09-18T05:05:21.740Z,3.97
2018-09-18T05:07:49.286Z,3.97
2018-09-18T05:10:16.931Z,3.90
2018-09-18T05:12:44.487Z,4.07
2018-09-18T05:15:12.120Z,3.47
2018-09-18T05:17:39.979Z,3.43
2018-09-18T05:20:07.555Z,3.90
2018-09-18T05:22:35.382Z,4.40
2018-09-18T05:25:03.748Z,3.37
2018-09-18T05:27:31.354Z,2.77
2018-09-18T05:29:58.965Z,3.30
2018-09-18T05:32:26.610Z,3.20
2018-09-18T05:34:54.190Z,3.60
2018-09-18T05:37:21.727Z,3.27
2018-09-18T05:39:49.256Z,3.67
2018-09-18T05:42:16.934Z,4.10
2018-09-18T05:44:44.573Z,4.03
2018-09-18T05:47:12.659Z,4.17
2018-09-18T05:49:40.375Z,4.27
2018-09-18T05:52:07.934Z,3.80
2018-09-18T05:54:35.623Z,3.87
2018-09-18T05:57:03.554Z,3.40
2018-09-18T05:59:31.210Z,5.13
2018-09-18T06:01:58.767Z,7.63
2018-09-18T06:04:26.314Z,7.70
2018-09-18T06:06:53.828Z,17.47
2018-09-18T06:09:21.359Z,20.40
2018-09-18T06:11:48.884Z,18.97
2018-09-18T06:14:16.467Z,18.20
2018-09-18T06:16:43.977Z,18.40
2018-09-18T06:19:11.627Z,19.20
2018-09-18T06:21:39.134Z,17.73
2018-09-18T06:24:07.186Z,19.10
2018-09-18T06:26:34.763Z,18.40
2018-09-18T06:29:02.834Z,18.20
2018-09-18T06:31:30.430Z,17.30
2018-09-18T06:33:57.968Z,17.23
2018-09-18T06:36:25.750Z,17.70
2018-09-18T06:38:53.287Z,15.73
2018-09-18T06:41:20.900Z,16.47
2018-09-18T06:43:48.492Z,17.60
2018-09-18T06:46:16.035Z,16.27
2018-09-18T06:48:43.586Z,15.53
2018-09-18T06:51:11.148Z,14.63
2018-09-18T06:53:38.715Z,15.10
2018-09-18T06:56:06.382Z,13.77
2018-09-18T06:58:33.971Z,13.97
2018-09-18T07:01:01.938Z,12.27
2018-09-18T07:03:30.495Z,12.53
2018-09-18T07:05:58.018Z,11.57
2018-09-18T07:08:25.543Z,12.80
2018-09-18T07:10:53.238Z,11.43
2018-09-18T07:13:20.786Z,11.93
2018-09-18T07:15:48.370Z,11.23
2018-09-18T07:18:16.005Z,10.23
2018-09-18T07:20:43.575Z,10.40
2018-09-18T07:23:11.130Z,9.73
2018-09-18T07:25:38.751Z,9.87
2018-09-18T07:28:06.479Z,8.80
2018-09-18T07:30:34.012Z,8.40
2018-09-18T07:33:02.131Z,8.17
2018-09-18T07:35:29.791Z,7.93
2018-09-18T07:37:57.350Z,8.17
2018-09-18T07:40:24.908Z,6.43
2018-09-18T07:42:52.427Z,6.87
2018-09-18T07:45:19.955Z,6.67
2018-09-18T07:47:47.559Z,6.87
2018-09-18T07:50:15.087Z,6.77
2018-09-18T07:52:42.689Z,6.00
2018-09-18T07:55:10.258Z,5.70
2018-09-18T07:57:37.815Z,5.80
2018-09-18T08:00:05.363Z,5.50
2018-09-18T08:02:33.069Z,5.30
2018-09-18T08:05:00.579Z,4.63
2018-09-18T08:07:28.203Z,4.33
2018-09-18T08:09:55.749Z,3.90
2018-09-18T08:12:23.276Z,3.70
2018-09-18T08:14:50.822Z,4.33
2018-09-18T08:17:18.376Z,3.97
2018-09-18T08:19:50.140Z,3.63
2018-09-18T08:22:17.588Z,4.15
2018-09-18T08:24:45.715Z,3.67
2018-09-18T08:27:13.380Z,4.60
2018-09-18T08:29:40.921Z,4.10
2018-09-18T08:32:08.467Z,3.85
2018-09-18T08:34:35.984Z,4.40
2018-09-18T08:37:04.150Z,4.42
2018-09-18T08:39:31.724Z,4.58
2018-09-18T08:41:59.317Z,4.20
2018-09-18T08:44:26.831Z,3.83
2018-09-18T08:46:54.424Z,3.95
2018-09-18T08:49:22.017Z,3.75
2018-09-18T08:51:49.553Z,4.05
2018-09-18T08:54:17.227Z,3.87
2018-09-18T08:56:44.806Z,3.80
2018-09-18T08:59:12.349Z,3.90
2018-09-18T09:01:39.918Z,4.20
2018-09-18T09:04:07.607Z,3.55
2018-09-18T09:06:35.152Z,4.10
2018-09-18T09:09:04.063Z,3.58
2018-09-18T09:11:31.765Z,3.83
2018-09-18T09:13:59.321Z,3.67
2018-09-18T09:16:26.864Z,3.70
2018-09-18T09:18:54.434Z,3.60
2018-09-18T09:21:22.084Z,3.30
2018-09-18T09:23:49.660Z,3.50
2018-09-18T09:26:17.223Z,3.90
2018-09-18T09:28:44.778Z,4.30
2018-09-18T09:31:12.333Z,3.98
2018-09-18T09:33:39.932Z,3.85
2018-09-18T09:36:07.491Z,3.15
2018-09-18T09:38:35.051Z,4.05
2018-09-18T09:41:02.860Z,3.95
2018-09-18T09:43:30.514Z,3.83
2018-09-18T09:45:58.043Z,3.70
2018-09-18T09:48:26.596Z,3.70
2018-09-18T09:50:54.125Z,3.45
2018-09-18T09:53:21.702Z,3.45
2018-09-18T09:55:49.236Z,3.37
2018-09-18T09:58:16.723Z,4.22
2018-09-18T10:00:49.784Z,3.92
2018-09-18T10:03:19.330Z,3.33
2018-09-18T10:05:47.444Z,3.70
2018-09-18T10:08:15.030Z,3.42
2018-09-18T10:10:42.699Z,3.30
2018-09-18T10:13:10.048Z,3.50
2018-09-18T10:15:37.593Z,3.35
2018-09-18T10:18:05.362Z,3.15
2018-09-18T10:20:32.970Z,3.12
2018-09-18T10:23:00.436Z,3.70
2018-09-18T10:25:27.913Z,3.80
2018-09-18T10:27:55.447Z,2.90
2018-09-18T10:30:22.948Z,3.60
2018-09-18T10:32:50.685Z,3.55
2018-09-18T10:35:18.021Z,3.25
2018-09-18T10:37:45.900Z,3.72
2018-09-18T10:40:13.409Z,4.00
2018-09-18T10:42:40.959Z,3.98
2018-09-18T10:45:08.714Z,3.72
2018-09-18T10:47:36.392Z,3.70
2018-09-18T10:50:04.506Z,3.65
2018-09-18T10:52:32.064Z,3.87
2018-09-18T10:54:59.614Z,3.50
2018-09-18T10:57:27.119Z,3.60
2018-09-18T10:59:54.675Z,3.50
2018-09-18T11:02:22.337Z,3.75
2018-09-18T11:04:50.842Z,3.52
2018-09-18T11:07:18.426Z,3.67
2018-09-18T11:09:46.414Z,3.90
2018-09-18T11:12:13.883Z,3.45
2018-09-18T11:14:41.728Z,3.60
2018-09-18T11:17:09.182Z,3.62
2018-09-18T11:19:36.756Z,3.98
2018-09-18T11:22:04.308Z,3.25
2018-09-18T11:24:31.896Z,3.60
2018-09-18T11:27:00.318Z,3.70
2018-09-18T11:29:27.891Z,3.42
2018-09-18T11:31:55.601Z,3.80
2018-09-18T11:34:23.143Z,3.70
2018-09-18T11:36:50.770Z,3.50
2018-09-18T11:39:18.334Z,3.47
2018-09-18T11:41:46.265Z,3.67
2018-09-18T11:44:13.826Z,3.90
2018-09-18T11:46:41.542Z,3.60
2018-09-18T11:49:09.062Z,3.83
2018-09-18T11:51:36.777Z,3.52
2018-09-18T11:54:04.322Z,3.65
2018-09-18T11:56:31.912Z,3.42
2018-09-18T11:58:59.458Z,3.80
2018-09-18T12:01:27.182Z,3.60
2018-09-18T12:03:54.691Z,3.58
2018-09-18T12:06:22.222Z,3.40
2018-09-18T12:08:49.804Z,3.50
2018-09-18T12:11:17.491Z,3.47
2018-09-18T12:13:44.946Z,3.65
2018-09-18T12:16:12.441Z,3.52
2018-09-18T12:18:39.943Z,3.25
2018-09-18T12:21:07.785Z,3.62
2018-09-18T12:23:35.362Z,3.42
2018-09-18T12:26:02.979Z,3.40
2018-09-18T12:28:30.711Z,3.75
2018-09-18T12:30:58.284Z,3.40
2018-09-18T12:33:25.906Z,3.40
2018-09-18T12:35:53.492Z,3.08
2018-09-18T12:38:21.174Z,3.00
2018-09-18T12:40:48.694Z,2.77
2018-09-18T12:43:16.185Z,2.77
2018-09-18T12:45:43.781Z,3.00
2018-09-18T12:48:11.973Z,2.45
2018-09-18T12:50:39.680Z,2.37
2018-09-18T12:53:07.298Z,2.52
2018-09-18T12:55:34.806Z,2.77
2018-09-18T12:58:02.313Z,2.77
2018-09-18T13:00:29.820Z,2.10
2018-09-18T13:02:57.323Z,2.12
2018-09-18T13:05:24.858Z,2.05
2018-09-18T13:07:52.396Z,1.92
2018-09-18T13:10:20.959Z,2.00
2018-09-18T13:12:48.434Z,2.00
2018-09-18T13:15:15.959Z,2.10
2018-09-18T13:17:43.490Z,1.85
2018-09-18T13:20:11.002Z,1.98
2018-09-18T13:22:38.521Z,2.00
2018-09-18T13:25:06.169Z,1.80
2018-09-18T13:27:33.669Z,2.33
2018-09-18T13:30:01.266Z,1.80
2018-09-18T13:32:28.773Z,1.82
2018-09-18T13:34:56.304Z,1.87
2018-09-18T13:37:23.785Z,1.57
2018-09-18T13:39:51.313Z,1.72
2018-09-18T13:42:18.877Z,1.80
2018-09-18T13:44:46.813Z,1.67
2018-09-18T13:47:14.338Z,1.80
2018-09-18T13:49:42.865Z,2.00
2018-09-18T13:52:10.490Z,2.30
2018-09-18T13:54:38.040Z,2.10
2018-09-18T13:57:05.593Z,2.10
2018-09-18T13:59:33.483Z,1.98
2018-09-18T14:02:00.967Z,2.30
2018-09-18T14:04:28.591Z,2.12
2018-09-18T14:06:56.165Z,2.00
2018-09-18T14:09:23.681Z,2.25
2018-09-18T14:11:51.211Z,2.67
2018-09-18T14:14:19.798Z,2.20
2018-09-18T14:16:47.758Z,2.72
2018-09-18T14:19:15.354Z,2.00
2018-09-18T14:21:43.204Z,2.47
2018-09-18T14:24:10.750Z,2.45
2018-09-18T14:26:38.458Z,2.20
2018-09-18T14:29:06.274Z,2.47
2018-09-18T14:31:33.780Z,2.60
2018-09-18T14:34:01.399Z,2.92
2018-09-18T14:36:28.926Z,2.50
2018-09-18T14:38:56.413Z,2.60
2018-09-18T14:41:23.942Z,2.90
2018-09-18T14:43:51.433Z,2.35
2018-09-18T14:46:18.939Z,2.27
2018-09-18T14:48:46.849Z,2.37
2018-09-18T14:51:14.409Z,2.83
2018-09-18T14:53:42.002Z,3.33
2018-09-18T14:56:09.561Z,2.98
2018-09-18T14:58:37.050Z,2.40
2018-09-18T15:01:04.598Z,2.65
2018-09-18T15:03:32.218Z,2.65
2018-09-18T15:05:59.729Z,2.50
2018-09-18T15:08:27.390Z,2.75
2018-09-18T15:10:54.888Z,3.10
2018-09-18T15:13:22.423Z,2.65
2018-09-18T15:15:49.976Z,2.65
2018-09-18T15:18:17.543Z,2.75
2018-09-18T15:20:45.277Z,2.50
2018-09-18T15:23:12.809Z,2.25
2018-09-18T15:25:40.309Z,2.70
2018-09-18T15:28:07.850Z,2.40
2018-09-18T15:30:35.331Z,2.50
2018-09-18T15:33:02.836Z,2.52
2018-09-18T15:35:30.339Z,2.83
2018-09-18T15:37:57.847Z,2.45
2018-09-18T15:40:25.414Z,2.20
2018-09-18T15:42:57.996Z,2.52
2018-09-18T15:45:25.577Z,2.33
2018-09-18T15:47:53.069Z,2.33
2018-09-18T15:50:20.614Z,2.33
2018-09-18T15:52:48.584Z,2.10
2018-09-18T15:55:16.160Z,2.05
2018-09-18T15:57:43.934Z,2.22
2018-09-18T16:00:11.768Z,2.25
2018-09-18T16:02:39.335Z,2.55
2018-09-18T16:05:06.866Z,2.70
2018-09-18T16:07:35.340Z,2.27
2018-09-18T16:10:02.901Z,2.35
2018-09-18T16:12:32.951Z,2.37
2018-09-18T16:15:00.625Z,2.30
2018-09-18T16:17:28.159Z,2.23
2018-09-18T16:19:55.708Z,2.30
2018-09-18T16:22:23.395Z,2.58
2018-09-18T16:24:51.123Z,2.10
2018-09-18T16:27:18.675Z,2.33
2018-09-18T16:29:46.800Z,2.03
2018-09-18T16:32:14.472Z,1.97
2018-09-18T16:34:42.093Z,2.13
2018-09-18T16:37:09.841Z,1.87
2018-09-18T16:39:37.493Z,1.97
2018-09-18T16:42:05.135Z,2.00
2018-09-18T16:44:32.686Z,2.50
2018-09-18T16:47:00.252Z,2.50
2018-09-18T16:49:27.938Z,2.27
2018-09-18T16:51:55.548Z,2.27
2018-09-18T16:54:23.250Z,2.20
2018-09-18T16:56:50.903Z,2.33
2018-09-18T16:59:18.513Z,2.30
2018-09-18T17:01:46.499Z,2.00
2018-09-18T17:04:14.039Z,2.40
2018-09-18T17:06:41.677Z,3.00
2018-09-18T17:09:09.696Z,2.70
2018-09-18T17:11:37.690Z,2.20
2018-09-18T17:14:05.358Z,2.30
2018-09-18T17:16:33.211Z,2.20
2018-09-18T17:19:00.725Z,2.50
2018-09-18T17:21:28.357Z,2.00
2018-09-18T17:23:56.177Z,2.27
2018-09-18T17:26:23.995Z,2.63
2018-09-18T17:28:51.826Z,2.23
2018-09-18T17:31:31.748Z,2.40
2018-09-18T17:34:01.732Z,2.87
2018-09-18T17:36:31.410Z,3.10
2018-09-18T17:38:59.114Z,2.60
2018-09-18T17:41:27.768Z,3.00
2018-09-18T17:43:57.594Z,3.57
2018-09-18T17:46:25.265Z,3.17
2018-09-18T17:48:52.916Z,3.13
2018-09-18T17:51:20.625Z,3.47
2018-09-18T17:53:48.631Z,3.70
2018-09-18T17:56:16.272Z,7.67
2018-09-18T17:58:43.866Z,5.00
2018-09-18T18:01:15.300Z,3.60
2018-09-18T18:03:42.849Z,3.30
2018-09-18T18:06:10.587Z,2.97
2018-09-18T18:08:38.462Z,3.50
2018-09-18T18:11:06.061Z,3.87
2018-09-18T18:13:34.182Z,3.40
2018-09-18T18:16:02.665Z,3.43
2018-09-18T18:18:30.367Z,3.50
2018-09-18T18:20:58.483Z,3.10
2018-09-18T18:23:25.960Z,3.37
2018-09-18T18:25:53.504Z,3.80
2018-09-18T18:28:21.125Z,3.27
2018-09-18T18:30:49.958Z,3.90
2018-09-18T18:33:17.666Z,3.60
2018-09-18T18:35:45.589Z,3.30
2018-09-18T18:38:15.314Z,4.90
2018-09-18T18:40:43.316Z,3.70
2018-09-18T18:43:11.506Z,3.80
2018-09-18T18:45:39.247Z,3.53
2018-09-18T18:48:07.243Z,3.97
2018-09-18T18:50:34.826Z,4.07
2018-09-18T18:53:02.915Z,3.80
2018-09-18T18:55:30.626Z,3.20
2018-09-18T18:57:59.304Z,3.07
2018-09-18T19:00:26.899Z,2.20
2018-09-18T19:02:54.896Z,2.40
2018-09-18T19:05:22.634Z,1.77
2018-09-18T19:07:50.257Z,2.27
2018-09-18T19:10:17.953Z,2.17
2018-09-18T19:12:45.860Z,1.40
2018-09-18T19:15:13.552Z,1.33
2018-09-18T19:17:41.291Z,1.17
2018-09-18T19:20:08.825Z,1.33
2018-09-18T19:22:36.455Z,1.60
2018-09-18T19:25:04.161Z,1.57
2018-09-18T19:27:31.829Z,1.77
2018-09-18T19:29:59.378Z,1.90
2018-09-18T19:32:27.868Z,1.60
2018-09-18T19:34:55.463Z,1.10
2018-09-18T19:37:23.357Z,1.80
2018-09-18T19:39:50.910Z,1.70
2018-09-18T19:42:19.409Z,1.50
2018-09-18T19:44:47.341Z,2.30
2018-09-18T19:47:14.906Z,2.30
2018-09-18T19:49:42.442Z,2.07
2018-09-18T19:52:10.770Z,2.10
2018-09-18T19:54:40.106Z,1.90
2018-09-18T19:57:12.976Z,2.60
2018-09-18T19:59:43.852Z,2.13
2018-09-18T20:02:14.301Z,2.33
2018-09-18T20:04:47.628Z,2.87
2018-09-18T20:07:18.766Z,2.40
2018-09-18T20:09:48.843Z,2.30
2018-09-18T20:12:19.304Z,2.07
2018-09-18T20:14:54.228Z,2.20
2018-09-18T20:17:24.596Z,2.40
2018-09-18T20:19:54.852Z,2.23
2018-09-18T20:22:25.947Z,2.03
2018-09-18T20:24:56.937Z,2.50
2018-09-18T20:27:26.175Z,2.10
2018-09-18T20:29:58.152Z,2.80
2018-09-18T20:32:30.596Z,2.37
2018-09-18T20:35:06.390Z,2.30
2018-09-18T20:37:37.912Z,2.20
2018-09-18T20:40:11.274Z,3.03
2018-09-18T20:42:47.251Z,2.60
2018-09-18T20:45:19.931Z,2.37
2018-09-18T20:47:51.915Z,2.70
2018-09-18T20:50:27.226Z,2.13
2018-09-18T20:53:03.674Z,1.70
2018-09-18T20:55:37.404Z,2.30
2018-09-18T20:58:05.162Z,1.83
2018-09-18T21:00:40.066Z,1.83
2018-09-18T21:03:12.038Z,1.50
2018-09-18T21:05:42.233Z,1.70
2018-09-18T21:08:13.637Z,1.90
2018-09-18T21:10:44.133Z,2.00
2018-09-18T21:13:18.408Z,2.40
2018-09-18T21:15:48.984Z,1.67
2018-09-18T21:18:19.678Z,2.03
2018-09-18T21:20:50.520Z,2.00
2018-09-18T21:23:21.975Z,2.10
2018-09-18T21:26:05.547Z,1.77
2018-09-18T21:28:33.238Z,1.87
2018-09-18T21:31:05.115Z,2.50
2018-09-18T21:33:37.049Z,2.63
2018-09-18T21:36:04.749Z,2.17
2018-09-18T21:38:32.555Z,2.27
2018-09-18T21:41:00.165Z,2.40
2018-09-18T21:43:28.572Z,1.97
2018-09-18T21:45:56.354Z,2.60
2018-09-18T21:48:23.935Z,2.03
2018-09-18T21:50:51.540Z,2.13
2018-09-18T21:53:21.161Z,1.80
2018-09-18T21:55:49.926Z,2.30
2018-09-18T21:58:17.450Z,1.97
2018-09-18T22:00:45.115Z,1.90
2018-09-18T22:03:12.690Z,2.37
2018-09-18T22:05:40.300Z,2.47
2018-09-18T22:08:07.823Z,2.03
2018-09-18T22:10:35.402Z,1.73
2018-09-18T22:13:03.132Z,2.50
2018-09-18T22:15:31.519Z,2.70
2018-09-18T22:17:59.059Z,2.67
2018-09-18T22:23:00.023Z,2.70
2018-09-18T22:25:27.580Z,2.30
2018-09-18T22:27:55.179Z,2.13
2018-09-18T22:30:22.791Z,1.80
2018-09-18T22:32:51.338Z,2.40
2018-09-18T22:35:18.891Z,2.00
2018-09-18T22:37:47.413Z,2.37
2018-09-18T22:40:14.964Z,2.13
2018-09-18T22:42:43.645Z,3.40
2018-09-18T22:45:14.338Z,2.87
2018-09-18T22:47:44.654Z,2.53
2018-09-18T22:50:12.743Z,3.70
2018-09-18T22:52:40.328Z,4.13
2018-09-18T22:55:07.988Z,3.50
2018-09-18T22:57:35.523Z,3.87
2018-09-18T23:00:10.148Z,3.57
2018-09-18T23:02:38.411Z,2.70
2018-09-18T23:05:06.284Z,3.23
2018-09-18T23:07:40.251Z,3.20
2018-09-18T23:10:11.312Z,3.50
2018-09-18T23:12:38.959Z,3.30
2018-09-18T23:15:06.575Z,3.07
2018-09-18T23:17:34.238Z,2.50
2018-09-18T23:20:06.714Z,2.23
2018-09-18T23:22:34.797Z,2.80
2018-09-18T23:25:10.447Z,2.50
2018-09-18T23:27:38.055Z,2.17
2018-09-18T23:30:05.990Z,2.33
2018-09-18T23:32:33.567Z,2.00
2018-09-18T23:35:01.083Z,2.40
2018-09-18T23:37:32.165Z,1.80
2018-09-18T23:40:00.755Z,2.17
2018-09-18T23:42:28.526Z,2.43
2018-09-18T23:44:56.062Z,2.77
2018-09-18T23:47:23.577Z,2.70
2018-09-18T23:49:51.156Z,2.47
2018-09-18T23:52:18.665Z,2.60
2018-09-18T23:54:48.345Z,2.37
2018-09-18T23:57:15.938Z,3.00
2018-09-18T23:59:47.048Z,2.47
